Time;durP1;ratioP1;P1;durP2;ratioP2;P2;SDS_P1;SDS_P2;PMS_P1;PMS_P2;Temp;Humidity;BMP_temperature;BMP_pressure;BME280_temperature;BME280_humidity;BME280_pressure;Samples;Min_cycle;Max_cycle;Signal;HPM_P1;HPM_P2
2022/08/09 00:02:06;;;;;;;4.50;2.75;;;15.00;99.90;;;;;;5052475;28;20473;-78
2022/08/09 00:04:32;;;;;;;3.90;2.35;;;14.90;99.90;;;;;;5053526;28;20056;-78
2022/08/09 00:06:59;;;;;;;4.28;2.25;;;14.90;99.90;;;;;;5053526;28;20136;-78
2022/08/09 00:09:24;;;;;;;4.22;2.63;;;14.90;99.90;;;;;;5053361;28;20134;-78
2022/08/09 00:11:50;;;;;;;5.88;2.75;;;14.90;99.90;;;;;;5053619;28;20092;-78
2022/08/09 00:14:16;;;;;;;4.70;2.67;;;14.80;99.90;;;;;;5053471;28;20037;-78
2022/08/09 00:16:42;;;;;;;5.68;2.50;;;14.70;99.90;;;;;;5052181;28;20134;-78
2022/08/09 00:19:08;;;;;;;6.78;2.90;;;14.80;99.90;;;;;;5052003;28;20045;-78
2022/08/09 00:21:34;;;;;;;4.55;2.65;;;14.70;99.90;;;;;;5053179;28;20033;-78
2022/08/09 00:24:00;;;;;;;4.32;2.45;;;14.70;99.90;;;;;;5052304;28;20057;-78
2022/08/09 00:26:28;;;;;;;6.15;2.72;;;14.70;99.90;;;;;;5053152;28;20052;-79
2022/08/09 00:28:54;;;;;;;4.20;2.42;;;14.70;99.90;;;;;;5052330;28;20061;-78
2022/08/09 00:31:24;;;;;;;6.70;2.47;;;14.60;99.90;;;;;;5053220;28;20033;-78
2022/08/09 00:33:51;;;;;;;4.47;2.50;;;14.60;99.90;;;;;;5052106;28;20049;-78
2022/08/09 00:36:17;;;;;;;5.35;2.78;;;14.60;99.90;;;;;;5051893;28;20045;-79
2022/08/09 00:38:43;;;;;;;4.45;2.53;;;14.60;99.90;;;;;;5053137;28;20040;-79
2022/08/09 00:41:12;;;;;;;3.55;2.20;;;14.50;99.90;;;;;;5053128;28;20480;-79
2022/08/09 00:43:39;;;;;;;5.18;2.20;;;14.50;99.90;;;;;;5055016;28;20046;-79
2022/08/09 00:46:05;;;;;;;3.28;2.47;;;14.50;99.90;;;;;;5056747;28;20442;-79
2022/08/09 00:48:31;;;;;;;3.92;2.50;;;14.50;99.90;;;;;;5055528;28;20053;-79
2022/08/09 00:51:02;;;;;;;6.05;2.67;;;14.50;99.90;;;;;;5056833;28;20051;-79
2022/08/09 00:53:28;;;;;;;4.18;2.22;;;14.50;99.90;;;;;;5056861;28;20048;-79
2022/08/09 00:55:53;;;;;;;3.30;2.17;;;14.40;99.90;;;;;;5055875;28;20123;-79
2022/08/09 00:58:19;;;;;;;6.40;2.45;;;14.40;99.90;;;;;;5056507;28;20150;-79
2022/08/09 01:00:48;;;;;;;4.43;2.30;;;14.40;99.90;;;;;;5055336;28;20056;-79
2022/08/09 01:03:18;;;;;;;4.65;2.15;;;14.40;99.90;;;;;;5055301;28;20049;-79
2022/08/09 01:06:00;;;;;;;4.93;2.05;;;14.30;99.90;;;;;;5056690;28;20076;-79
2022/08/09 01:08:42;;;;;;;8.05;2.40;;;14.30;99.90;;;;;;5055352;28;20045;-79
2022/08/09 01:11:41;;;;;;;5.03;2.90;;;14.30;99.90;;;;;;5056566;28;20045;-79
2022/08/09 01:14:12;;;;;;;5.43;2.10;;;14.20;99.90;;;;;;5055450;28;20477;-79
2022/08/09 01:16:43;;;;;;;4.25;1.90;;;14.30;99.90;;;;;;5056494;28;20037;-79
2022/08/09 01:19:44;;;;;;;3.35;2.10;;;14.20;99.90;;;;;;5055118;28;20542;-79
2022/08/09 01:22:40;;;;;;;4.20;2.25;;;14.20;99.90;;;;;;5039583;28;20061;-79
2022/08/09 01:25:33;;;;;;;4.00;2.30;;;14.10;99.90;;;;;;5055061;28;20064;-79
2022/08/09 01:28:01;;;;;;;4.90;2.53;;;14.10;99.90;;;;;;5054836;28;20057;-79
2022/08/09 01:30:29;;;;;;;4.40;2.20;;;14.00;99.90;;;;;;5056217;28;20037;-79
2022/08/09 01:32:56;;;;;;;5.95;2.60;;;14.00;99.90;;;;;;5056079;28;20048;-79
2022/08/09 01:35:44;;;;;;;4.40;2.03;;;14.00;99.90;;;;;;5055917;28;20091;-79
2022/08/09 01:38:17;;;;;;;5.10;2.10;;;13.90;99.90;;;;;;5054048;28;20053;-80
2022/08/09 01:41:30;;;;;;;4.18;2.13;;;13.90;99.90;;;;;;5056082;28;20041;-79
2022/08/09 01:44:02;;;;;;;6.10;2.50;;;13.90;99.90;;;;;;5017521;28;20045;-79
2022/08/09 01:46:33;;;;;;;6.38;2.20;;;13.80;99.90;;;;;;5033671;28;20042;-79
2022/08/09 01:49:04;;;;;;;4.95;2.35;;;13.80;99.90;;;;;;5047321;28;20123;-79
2022/08/09 01:51:30;;;;;;;5.20;2.28;;;13.80;99.90;;;;;;5055763;28;20048;-79
2022/08/09 01:53:58;;;;;;;4.97;2.30;;;13.80;99.90;;;;;;5054311;28;20064;-79
2022/08/09 01:56:25;;;;;;;4.55;2.30;;;13.80;99.90;;;;;;5053784;28;20045;-79
2022/08/09 01:58:54;;;;;;;4.10;2.30;;;13.70;99.90;;;;;;5054421;28;20496;-79
2022/08/09 02:01:21;;;;;;;4.07;2.10;;;13.70;99.90;;;;;;5055844;28;20068;-80
2022/08/09 02:03:48;;;;;;;3.35;1.80;;;13.70;99.90;;;;;;5054220;28;20045;-80
2022/08/09 02:06:17;;;;;;;3.80;2.75;;;13.70;99.90;;;;;;5054196;28;20442;-79
2022/08/09 02:08:45;;;;;;;3.10;1.90;;;13.60;99.90;;;;;;5055467;28;20041;-79
2022/08/09 02:11:13;;;;;;;4.95;2.25;;;13.60;99.90;;;;;;5055291;28;20052;-79
2022/08/09 02:13:40;;;;;;;3.22;2.00;;;13.70;99.90;;;;;;5055408;28;20037;-79
2022/08/09 02:16:10;;;;;;;4.50;1.95;;;13.60;99.90;;;;;;5054238;28;20502;-79
2022/08/09 02:18:38;;;;;;;3.38;1.92;;;13.50;99.90;;;;;;5054213;28;20053;-79
2022/08/09 02:21:15;;;;;;;4.93;2.10;;;13.50;99.90;;;;;;5055256;28;20037;-79
2022/08/09 02:23:47;;;;;;;3.05;1.88;;;13.50;99.90;;;;;;5053922;28;20081;-79
2022/08/09 02:26:15;;;;;;;3.67;1.95;;;13.50;99.90;;;;;;5053583;28;20127;-79
2022/08/09 02:28:47;;;;;;;4.95;2.20;;;13.50;99.90;;;;;;5053974;28;20128;-79
2022/08/09 02:31:20;;;;;;;3.77;1.93;;;13.50;99.90;;;;;;5053707;28;20040;-79
2022/08/09 02:33:48;;;;;;;4.00;1.85;;;13.50;99.90;;;;;;5055051;28;20366;-79
2022/08/09 02:36:22;;;;;;;3.30;1.90;;;13.50;99.90;;;;;;5054654;28;20052;-79
2022/08/09 02:38:53;;;;;;;3.28;1.95;;;13.50;99.90;;;;;;5054974;28;20053;-79
2022/08/09 02:41:31;;;;;;;5.63;2.10;;;13.50;99.90;;;;;;5054685;28;20555;-79
2022/08/09 02:44:03;;;;;;;4.43;2.05;;;13.40;99.90;;;;;;5053797;28;20049;-79
2022/08/09 02:46:32;;;;;;;4.00;2.03;;;13.40;99.90;;;;;;5054496;28;20510;-80
2022/08/09 02:49:01;;;;;;;4.78;2.17;;;13.40;99.90;;;;;;5053253;28;20044;-80
2022/08/09 02:51:33;;;;;;;3.97;2.30;;;13.30;99.90;;;;;;5054347;28;20503;-85
2022/08/09 02:54:01;;;;;;;3.97;1.90;;;13.30;99.90;;;;;;5053337;28;20053;-79
2022/08/09 02:56:30;;;;;;;7.85;2.28;;;13.30;99.90;;;;;;5053537;28;20120;-80
2022/08/09 02:58:59;;;;;;;3.85;2.47;;;13.30;99.90;;;;;;5054465;28;20033;-80
2022/08/09 03:01:26;;;;;;;4.10;2.50;;;13.30;99.90;;;;;;5053286;28;20048;-79
2022/08/09 03:03:53;;;;;;;5.88;2.63;;;13.30;99.90;;;;;;5053283;28;20149;-80
2022/08/09 03:06:21;;;;;;;5.60;2.50;;;13.30;99.90;;;;;;5054244;28;20049;-80
2022/08/09 03:08:49;;;;;;;6.40;2.97;;;13.30;99.90;;;;;;5054215;28;20706;-79
2022/08/09 03:11:17;;;;;;;5.82;2.92;;;13.30;99.90;;;;;;5054119;28;20396;-79
2022/08/09 03:13:45;;;;;;;6.95;3.00;;;13.30;99.90;;;;;;5054177;28;20049;-81
2022/08/09 03:16:12;;;;;;;5.40;2.67;;;13.30;99.90;;;;;;5053023;28;20053;-79
2022/08/09 03:18:38;;;;;;;4.88;2.70;;;13.30;99.90;;;;;;5054029;28;20049;-79
2022/08/09 03:21:05;;;;;;;4.68;2.88;;;13.20;99.90;;;;;;5054024;28;20139;-79
2022/08/09 03:23:31;;;;;;;5.15;2.53;;;13.20;99.90;;;;;;5053969;28;20471;-79
2022/08/09 03:25:58;;;;;;;4.60;2.38;;;13.20;99.90;;;;;;5052598;28;20128;-80
2022/08/09 03:28:25;;;;;;;5.63;2.38;;;13.20;99.90;;;;;;5052683;28;20399;-79
2022/08/09 03:30:52;;;;;;;7.10;2.42;;;13.20;99.90;;;;;;5052844;28;20049;-80
2022/08/09 03:33:19;;;;;;;5.65;2.30;;;13.20;99.90;;;;;;5052362;28;20048;-79
2022/08/09 03:35:51;;;;;;;4.53;2.15;;;13.20;99.90;;;;;;5053909;28;20048;-79
2022/08/09 03:38:17;;;;;;;5.30;2.03;;;13.10;99.90;;;;;;5053923;28;20132;-79
2022/08/09 03:40:42;;;;;;;4.55;1.95;;;13.10;99.90;;;;;;5052748;28;20119;-79
2022/08/09 03:43:08;;;;;;;5.47;2.50;;;13.10;99.90;;;;;;5053854;28;20419;-79
2022/08/09 03:45:35;;;;;;;4.97;2.70;;;13.10;99.90;;;;;;5053726;28;20037;-79
2022/08/09 03:48:01;;;;;;;6.82;3.08;;;13.10;99.90;;;;;;5053900;28;20044;-79
2022/08/09 03:50:28;;;;;;;5.18;2.60;;;13.10;99.90;;;;;;5052536;28;20041;-79
2022/08/09 03:52:56;;;;;;;6.57;2.65;;;13.10;99.90;;;;;;5053378;28;20119;-79
2022/08/09 03:55:22;;;;;;;3.75;2.47;;;13.00;99.90;;;;;;5052050;28;20049;-79
2022/08/09 03:57:49;;;;;;;5.55;2.55;;;13.00;99.90;;;;;;5051486;28;20056;-80
2022/08/09 04:00:15;;;;;;;6.60;2.50;;;13.00;99.90;;;;;;5050681;28;20084;-80
2022/08/09 04:02:42;;;;;;;4.13;2.28;;;13.00;99.90;;;;;;5051459;28;20084;-79
2022/08/09 04:05:12;;;;;;;4.30;2.42;;;13.00;99.90;;;;;;5052154;28;20045;-79
2022/08/09 04:07:38;;;;;;;5.25;2.75;;;13.00;99.90;;;;;;5052230;28;20049;-79
2022/08/09 04:10:04;;;;;;;5.70;2.67;;;13.00;99.90;;;;;;5052687;28;20055;-79
2022/08/09 04:12:56;;;;;;;4.03;2.60;;;13.00;99.90;;;;;;5053111;28;20041;-79
2022/08/09 04:15:23;;;;;;;4.93;2.50;;;13.00;99.90;;;;;;5052159;28;20412;-80
2022/08/09 04:17:49;;;;;;;7.32;2.70;;;13.00;99.90;;;;;;5053794;28;20037;-80
2022/08/09 04:20:16;;;;;;;4.80;2.60;;;13.00;99.90;;;;;;5057086;28;20537;-80
2022/08/09 04:22:44;;;;;;;8.23;2.78;;;13.00;99.90;;;;;;5057459;28;20142;-79
2022/08/09 04:25:10;;;;;;;5.10;2.83;;;13.00;99.90;;;;;;5056904;28;20053;-80
2022/08/09 04:27:40;;;;;;;6.35;2.72;;;13.00;99.90;;;;;;5057113;28;20049;-80
2022/08/09 04:30:18;;;;;;;3.97;2.60;;;13.00;99.90;;;;;;5055810;28;20049;-79
2022/08/09 04:32:44;;;;;;;5.70;2.47;;;13.00;99.90;;;;;;5055682;28;20053;-80
2022/08/09 04:35:12;;;;;;;4.90;2.42;;;13.00;99.90;;;;;;5055649;28;20041;-80
2022/08/09 04:37:38;;;;;;;6.82;2.75;;;13.00;99.90;;;;;;5055972;28;20051;-79
2022/08/09 04:40:05;;;;;;;8.07;3.38;;;13.00;99.90;;;;;;5056987;28;20037;-79
2022/08/09 04:42:31;;;;;;;6.63;3.28;;;13.10;99.90;;;;;;5056736;28;20151;-79
2022/08/09 04:44:58;;;;;;;8.23;3.20;;;13.10;99.90;;;;;;5056812;28;20056;-79
2022/08/09 04:47:25;;;;;;;6.43;3.05;;;13.10;99.90;;;;;;5055426;28;20068;-80
2022/08/09 04:49:51;;;;;;;5.30;3.00;;;13.20;99.90;;;;;;5056941;28;20087;-81
2022/08/09 04:52:18;;;;;;;7.05;3.22;;;13.20;99.90;;;;;;5056883;28;20049;-80
2022/08/09 04:54:44;;;;;;;6.65;2.85;;;13.10;99.90;;;;;;5055735;28;20041;-80
2022/08/09 04:57:10;;;;;;;7.82;3.10;;;13.20;99.90;;;;;;5056471;28;20049;-80
2022/08/09 04:59:36;;;;;;;6.43;3.13;;;13.20;99.90;;;;;;5056508;28;20049;-80
2022/08/09 05:02:02;;;;;;;4.90;2.25;;;13.30;99.90;;;;;;5056709;28;20098;-80
2022/08/09 05:04:27;;;;;;;7.35;3.03;;;13.30;99.90;;;;;;5056723;28;20040;-80
2022/08/09 05:06:53;;;;;;;5.20;2.92;;;13.30;99.90;;;;;;5056570;28;20037;-80
2022/08/09 05:09:20;;;;;;;7.30;3.38;;;13.40;99.90;;;;;;5055063;28;20037;-80
2022/08/09 05:11:46;;;;;;;6.60;3.30;;;13.50;99.90;;;;;;5054943;28;20045;-80
2022/08/09 05:14:11;;;;;;;8.70;3.20;;;13.50;99.90;;;;;;5056483;28;20078;-80
2022/08/09 05:16:37;;;;;;;6.00;3.30;;;13.60;99.90;;;;;;5056082;28;20052;-80
2022/08/09 05:19:03;;;;;;;5.85;3.50;;;13.70;99.90;;;;;;5056063;28;20045;-80
2022/08/09 05:21:29;;;;;;;7.57;3.55;;;13.70;99.90;;;;;;5055056;28;20392;-80
2022/08/09 05:23:54;;;;;;;6.28;3.33;;;13.90;99.90;;;;;;5055047;28;20055;-80
2022/08/09 05:26:20;;;;;;;6.60;3.17;;;13.90;99.90;;;;;;5055915;28;20056;-80
2022/08/09 05:28:46;;;;;;;5.60;2.97;;;13.90;99.90;;;;;;5055883;28;20049;-80
2022/08/09 05:31:11;;;;;;;6.97;2.92;;;14.00;99.90;;;;;;5054884;28;20087;-80
2022/08/09 05:33:37;;;;;;;7.05;3.22;;;14.10;99.90;;;;;;5056391;28;20041;-80
2022/08/09 05:36:03;;;;;;;8.07;2.90;;;14.10;99.90;;;;;;5047637;28;20060;-79
2022/08/09 05:38:30;;;;;;;7.20;2.90;;;14.10;99.90;;;;;;5035771;28;20132;-80
2022/08/09 05:40:56;;;;;;;7.63;3.60;;;14.20;99.90;;;;;;5034327;28;20075;-79
2022/08/09 05:43:21;;;;;;;6.00;3.00;;;14.40;99.90;;;;;;5035585;28;20076;-81
2022/08/09 05:45:47;;;;;;;5.93;3.30;;;14.40;99.90;;;;;;5035504;28;20049;-79
2022/08/09 05:48:13;;;;;;;7.13;4.10;;;14.50;99.90;;;;;;5034266;28;20050;-79
2022/08/09 05:50:40;;;;;;;8.05;4.25;;;14.70;99.90;;;;;;5035404;28;20095;-80
2022/08/09 05:53:06;;;;;;;7.88;3.95;;;14.80;99.90;;;;;;5035588;28;20050;-78
2022/08/09 05:55:32;;;;;;;7.50;4.13;;;14.90;99.90;;;;;;5035331;28;20554;-79
2022/08/09 05:57:58;;;;;;;7.70;3.90;;;15.00;99.90;;;;;;5035642;28;20045;-79
2022/08/09 06:00:28;;;;;;;8.15;3.92;;;15.10;99.90;;;;;;5035484;28;20056;-79
2022/08/09 06:02:58;;;;;;;10.25;4.90;;;15.30;99.90;;;;;;5035470;28;20044;-79
2022/08/09 06:05:25;;;;;;;9.95;5.03;;;15.40;99.90;;;;;;5035253;28;20037;-79
2022/08/09 06:07:51;;;;;;;8.38;4.80;;;15.50;99.90;;;;;;5034073;28;20057;-81
2022/08/09 06:10:16;;;;;;;6.72;4.28;;;15.70;99.90;;;;;;5034007;28;20045;-80
2022/08/09 06:12:42;;;;;;;11.18;4.82;;;15.90;99.90;;;;;;5035069;28;20511;-79
2022/08/09 06:15:08;;;;;;;8.82;4.20;;;16.00;99.90;;;;;;5035094;28;20481;-79
2022/08/09 06:17:34;;;;;;;9.02;4.78;;;16.10;99.90;;;;;;5034743;28;20049;-79
2022/08/09 06:20:00;;;;;;;7.57;4.25;;;16.10;99.90;;;;;;5035256;28;20396;-79
2022/08/09 06:22:25;;;;;;;8.93;4.53;;;16.20;99.90;;;;;;5035249;28;20037;-79
2022/08/09 06:24:51;;;;;;;6.65;3.83;;;16.30;99.90;;;;;;5034742;28;20037;-79
2022/08/09 06:27:16;;;;;;;7.30;4.10;;;16.40;99.90;;;;;;5034860;28;20056;-79
2022/08/09 06:29:43;;;;;;;8.63;4.05;;;16.50;99.90;;;;;;5035153;28;20092;-79
2022/08/09 06:32:08;;;;;;;9.68;4.63;;;16.60;99.90;;;;;;5034743;28;20073;-79
2022/08/09 06:34:34;;;;;;;10.82;3.60;;;16.70;99.90;;;;;;5033583;28;20056;-79
2022/08/09 06:37:00;;;;;;;6.50;3.53;;;16.80;99.90;;;;;;5033678;28;20083;-80
2022/08/09 06:39:30;;;;;;;5.78;3.30;;;16.80;99.90;;;;;;5034724;28;20507;-79
2022/08/09 06:41:56;;;;;;;8.73;3.10;;;16.80;99.90;;;;;;5033199;28;20081;-79
2022/08/09 06:44:21;;;;;;;5.22;2.80;;;16.90;99.90;;;;;;5034881;28;20038;-79
2022/08/09 06:46:49;;;;;;;7.35;3.42;;;16.90;99.90;;;;;;5034839;28;20053;-79
2022/08/09 06:49:14;;;;;;;6.20;2.67;;;17.00;99.90;;;;;;5033321;28;20057;-79
2022/08/09 06:51:40;;;;;;;6.78;3.08;;;17.00;99.90;;;;;;5033372;28;20045;-79
2022/08/09 06:54:06;;;;;;;6.80;2.60;;;17.30;99.90;;;;;;5034610;28;20052;-79
2022/08/09 06:56:31;;;;;;;7.07;2.85;;;17.50;99.90;;;;;;5033378;28;20393;-79
2022/08/09 06:58:58;;;;;;;6.47;2.65;;;17.80;99.90;;;;;;5033598;28;20465;-79
2022/08/09 07:01:23;;;;;;;5.38;3.28;;;17.90;99.90;;;;;;5033019;28;20120;-79
2022/08/09 07:03:49;;;;;;;4.53;2.78;;;18.20;99.90;;;;;;5033227;28;20175;-79
2022/08/09 07:06:15;;;;;;;5.55;2.42;;;18.50;99.90;;;;;;5033267;28;20191;-79
2022/08/09 07:08:40;;;;;;;3.70;1.90;;;18.80;99.90;;;;;;5034128;28;20047;-80
2022/08/09 07:11:07;;;;;;;4.93;2.80;;;19.00;99.90;;;;;;5034034;28;20063;-80
2022/08/09 07:13:33;;;;;;;7.07;2.42;;;19.20;99.90;;;;;;5034185;28;20055;-80
2022/08/09 07:15:59;;;;;;;6.57;2.30;;;19.40;99.90;;;;;;5032738;28;20049;-79
2022/08/09 07:18:24;;;;;;;4.60;2.20;;;19.50;99.90;;;;;;5034202;28;20041;-80
2022/08/09 07:20:51;;;;;;;5.18;2.20;;;19.50;99.90;;;;;;5032921;28;20050;-79
2022/08/09 07:23:16;;;;;;;5.50;2.08;;;19.70;99.90;;;;;;5034010;28;20060;-80
2022/08/09 07:25:42;;;;;;;4.05;2.00;;;19.90;99.90;;;;;;5032347;28;20053;-79
2022/08/09 07:28:10;;;;;;;4.57;2.00;;;20.10;99.90;;;;;;5032921;28;20053;-80
2022/08/09 07:30:37;;;;;;;4.20;1.90;;;20.20;99.90;;;;;;5032505;28;20132;-79
2022/08/09 07:33:02;;;;;;;4.28;1.60;;;20.30;99.90;;;;;;5033683;28;20523;-79
2022/08/09 07:35:28;;;;;;;5.25;1.92;;;20.40;99.90;;;;;;5033850;28;20042;-80
2022/08/09 07:37:54;;;;;;;5.07;1.63;;;20.70;99.90;;;;;;5033891;28;20049;-80
2022/08/09 07:40:19;;;;;;;3.40;1.50;;;20.80;99.90;;;;;;5032348;28;20052;-80
2022/08/09 07:42:53;;;;;;;3.10;1.58;;;20.90;99.90;;;;;;5033891;28;20041;-79
2022/08/09 07:45:25;;;;;;;2.25;1.20;;;20.90;99.90;;;;;;5032363;28;20045;-80
2022/08/09 07:47:55;;;;;;;3.10;1.45;;;21.00;99.90;;;;;;5033548;28;20400;-80
2022/08/09 07:50:22;;;;;;;3.80;1.38;;;21.20;99.90;;;;;;5032344;28;20045;-80
2022/08/09 07:52:48;;;;;;;3.22;1.58;;;21.30;99.90;;;;;;5031327;28;20053;-80
2022/08/09 07:55:15;;;;;;;3.15;1.67;;;21.50;99.90;;;;;;5033591;28;20056;-80
2022/08/09 07:57:40;;;;;;;3.10;1.35;;;21.70;99.90;;;;;;5033282;28;20053;-80
2022/08/09 08:00:06;;;;;;;2.50;1.30;;;21.80;99.90;;;;;;5032436;28;20102;-80
2022/08/09 08:02:32;;;;;;;5.07;1.75;;;21.80;99.90;;;;;;5033477;28;20045;-80
2022/08/09 08:04:58;;;;;;;3.05;1.30;;;21.90;99.90;;;;;;5033558;28;20038;-79
2022/08/09 08:07:24;;;;;;;5.05;1.33;;;21.70;99.90;;;;;;5033496;28;20064;-80
2022/08/09 08:09:51;;;;;;;4.75;1.52;;;21.70;99.90;;;;;;5032066;28;20436;-80
2022/08/09 08:12:18;;;;;;;3.72;1.13;;;21.60;99.90;;;;;;5033326;28;20052;-80
2022/08/09 08:14:43;;;;;;;3.05;1.30;;;21.70;99.90;;;;;;5033561;28;20033;-80
2022/08/09 08:17:09;;;;;;;3.35;1.23;;;21.70;99.90;;;;;;5033467;28;20443;-80
2022/08/09 08:19:35;;;;;;;4.95;1.77;;;21.80;99.90;;;;;;5031959;28;20385;-80
2022/08/09 08:22:02;;;;;;;2.28;0.90;;;21.60;99.90;;;;;;5033295;28;20073;-81
2022/08/09 08:24:28;;;;;;;2.55;1.20;;;21.60;99.90;;;;;;5033369;28;20084;-80
2022/08/09 08:26:54;;;;;;;3.55;1.10;;;21.80;99.90;;;;;;5033039;28;20493;-81
2022/08/09 08:29:19;;;;;;;1.98;1.00;;;22.00;99.90;;;;;;5033309;28;20050;-80
2022/08/09 08:31:45;;;;;;;2.90;1.10;;;22.10;99.90;;;;;;5033303;28;20044;-80
2022/08/09 08:34:11;;;;;;;2.58;1.10;;;22.00;99.90;;;;;;5032213;28;20489;-82
2022/08/09 08:36:37;;;;;;;2.35;0.90;;;22.10;99.90;;;;;;5032968;28;20096;-80
2022/08/09 08:39:03;;;;;;;2.50;1.05;;;21.90;99.90;;;;;;5031816;28;20073;-80
2022/08/09 08:41:29;;;;;;;2.50;0.80;;;21.80;99.90;;;;;;5032979;28;20103;-80
2022/08/09 08:43:57;;;;;;;1.88;0.88;;;21.90;99.90;;;;;;5033069;28;20049;-80
2022/08/09 08:46:29;;;;;;;3.97;0.95;;;21.50;99.90;;;;;;5032896;28;20135;-81
2022/08/09 08:48:57;;;;;;;3.40;0.80;;;21.80;99.90;;;;;;5031981;28;20077;-81
2022/08/09 08:51:23;;;;;;;2.28;0.73;;;22.10;99.90;;;;;;5031888;28;20049;-80
2022/08/09 08:53:52;;;;;;;2.78;0.82;;;22.20;99.90;;;;;;5031551;28;20512;-80
2022/08/09 08:56:19;;;;;;;2.17;0.90;;;22.40;99.90;;;;;;5032882;28;20072;-80
2022/08/09 08:58:46;;;;;;;3.42;1.00;;;22.30;99.90;;;;;;5032848;28;20053;-80
2022/08/09 09:01:15;;;;;;;2.83;0.63;;;22.40;99.90;;;;;;5032817;28;20493;-80
2022/08/09 09:03:42;;;;;;;1.45;0.60;;;22.20;99.90;;;;;;5032974;28;20409;-80
2022/08/09 09:06:10;;;;;;;6.47;2.55;;;22.00;99.90;;;;;;5036404;28;20095;-80
2022/08/09 09:08:38;;;;;;;1.15;0.65;;;22.40;99.90;;;;;;5036362;28;20404;-80
2022/08/09 09:11:05;;;;;;;3.33;1.00;;;22.30;99.90;;;;;;5035604;28;20049;-80
2022/08/09 09:13:36;;;;;;;2.13;0.50;;;22.60;99.90;;;;;;5036395;28;20052;-80
2022/08/09 09:16:02;;;;;;;2.15;0.60;;;22.70;99.90;;;;;;5036304;28;20033;-81
2022/08/09 09:18:27;;;;;;;0.88;0.55;;;22.50;99.90;;;;;;5034975;28;20041;-80
2022/08/09 09:20:54;;;;;;;1.50;0.50;;;22.50;99.90;;;;;;5036352;28;20115;-80
2022/08/09 09:23:40;;;;;;;1.30;0.50;;;22.60;99.90;;;;;;5036397;28;20136;-80
2022/08/09 09:26:06;;;;;;;1.08;0.60;;;22.70;99.90;;;;;;5035929;28;20076;-80
2022/08/09 09:28:33;;;;;;;2.17;0.50;;;22.90;99.90;;;;;;5036041;28;20405;-81
2022/08/09 09:31:00;;;;;;;1.98;0.70;;;22.70;99.90;;;;;;5035986;28;20045;-81
2022/08/09 09:33:36;;;;;;;2.17;0.80;;;22.70;99.90;;;;;;5035879;28;20045;-81
2022/08/09 09:36:04;;;;;;;1.73;0.60;;;23.00;99.90;;;;;;5036399;28;20049;-80
2022/08/09 09:38:55;;;;;;;1.95;0.60;;;22.60;99.90;;;;;;5035818;28;20485;-80
2022/08/09 09:41:26;;;;;;;3.25;0.77;;;22.90;99.90;;;;;;5036147;28;20049;-80
2022/08/09 09:44:03;;;;;;;2.30;0.60;;;22.90;99.90;;;;;;5035770;28;20052;-81
2022/08/09 09:46:33;;;;;;;1.77;0.80;;;22.80;99.90;;;;;;5034692;28;20151;-81
2022/08/09 09:49:01;;;;;;;4.53;0.70;;;22.80;99.90;;;;;;5036042;28;20065;-81
2022/08/09 09:51:30;;;;;;;1.92;0.68;;;22.80;99.90;;;;;;5034382;28;20187;-81
2022/08/09 09:54:09;;;;;;;4.25;0.65;;;22.90;99.90;;;;;;5035939;28;20050;-80
2022/08/09 09:56:39;;;;;;;1.83;0.70;;;23.00;99.90;;;;;;5035845;28;20133;-81
2022/08/09 09:59:09;;;;;;;2.67;1.10;;;23.20;99.90;;;;;;5035561;28;20519;-80
2022/08/09 10:01:36;;;;;;;2.83;0.60;;;23.00;99.90;;;;;;5034425;28;20485;-80
2022/08/09 10:04:03;;;;;;;3.42;0.95;;;22.90;99.90;;;;;;5035468;28;20048;-81
2022/08/09 10:06:38;;;;;;;3.00;0.68;;;23.00;99.90;;;;;;5035615;28;20127;-80
2022/08/09 10:09:04;;;;;;;2.65;0.60;;;23.30;99.90;;;;;;5035613;28;20041;-80
2022/08/09 10:11:32;;;;;;;3.10;0.68;;;23.20;99.90;;;;;;5035327;28;20049;-80
2022/08/09 10:13:58;;;;;;;1.30;0.60;;;23.30;99.90;;;;;;5033961;28;20140;-80
2022/08/09 10:16:37;;;;;;;2.15;0.52;;;23.40;99.90;;;;;;5034323;28;20088;-80
2022/08/09 10:19:08;;;;;;;0.82;0.40;;;23.60;99.90;;;;;;5035406;28;20171;-80
2022/08/09 10:21:43;;;;;;;2.15;0.60;;;23.80;99.90;;;;;;5035260;28;20053;-79
2022/08/09 10:24:10;;;;;;;1.88;1.00;;;23.70;99.90;;;;;;5033842;28;20128;-80
2022/08/09 10:26:36;;;;;;;2.40;0.70;;;23.80;99.90;;;;;;5034811;28;20062;-80
2022/08/09 10:29:04;;;;;;;2.17;0.70;;;23.80;99.90;;;;;;5035118;28;20076;-80
2022/08/09 10:31:30;;;;;;;1.92;0.50;;;23.90;99.90;;;;;;5035116;28;20047;-79
2022/08/09 10:33:56;;;;;;;1.45;0.70;;;23.80;99.90;;;;;;5033477;28;20053;-80
2022/08/09 10:36:22;;;;;;;1.67;0.80;;;23.70;99.90;;;;;;5034798;28;20041;-80
2022/08/09 10:38:47;;;;;;;1.98;0.60;;;23.70;99.90;;;;;;5035051;28;20045;-79
2022/08/09 10:41:15;;;;;;;2.47;0.60;;;23.60;99.90;;;;;;5034910;28;20378;-80
2022/08/09 10:43:44;;;;;;;2.58;0.50;;;23.80;99.90;;;;;;5034589;28;20052;-80
2022/08/09 10:46:40;;;;;;;4.40;0.75;;;23.70;99.90;;;;;;5034628;28;20067;-80
2022/08/09 10:49:28;;;;;;;1.90;0.60;;;24.00;99.90;;;;;;5034789;28;20080;-80
2022/08/09 10:52:17;;;;;;;1.70;0.60;;;24.00;99.90;;;;;;5034402;28;20038;-79
2022/08/09 10:54:42;;;;;;;1.98;0.70;;;23.70;99.90;;;;;;5034654;28;20128;-80
2022/08/09 10:57:12;;;;;;;1.77;0.68;;;23.80;99.90;;;;;;5034318;28;20073;-79
2022/08/09 10:59:39;;;;;;;1.15;0.57;;;23.70;99.90;;;;;;5033308;28;20069;-80
2022/08/09 11:02:07;;;;;;;2.50;0.60;;;23.50;99.90;;;;;;5034389;28;20485;-80
2022/08/09 11:04:34;;;;;;;1.80;0.63;;;23.70;99.90;;;;;;5032945;28;20120;-80
2022/08/09 11:07:00;;;;;;;1.35;0.70;;;23.80;99.90;;;;;;5033127;28;20107;-80
2022/08/09 11:09:38;;;;;;;3.70;0.85;;;24.10;99.90;;;;;;5032948;28;20045;-79
2022/08/09 11:12:25;;;;;;;2.28;0.93;;;24.40;99.90;;;;;;5034031;28;20508;-79
2022/08/09 11:14:56;;;;;;;2.13;0.52;;;24.40;99.90;;;;;;5032999;28;20053;-80
2022/08/09 11:17:21;;;;;;;2.35;0.40;;;24.60;99.90;;;;;;5034054;28;20614;-80
2022/08/09 11:19:57;;;;;;;2.55;0.68;;;24.80;99.90;;;;;;5034176;28;20132;-80
2022/08/09 11:22:44;;;;;;;1.98;0.55;;;25.00;99.90;;;;;;5032939;28;20404;-79
2022/08/09 11:25:17;;;;;;;1.58;0.52;;;24.50;99.90;;;;;;5032370;28;20132;-80
2022/08/09 11:27:49;;;;;;;1.13;0.40;;;24.40;99.90;;;;;;5032538;28;20424;-80
2022/08/09 11:30:26;;;;;;;3.25;0.63;;;24.40;99.90;;;;;;5032805;28;20497;-80
2022/08/09 11:33:24;;;;;;;1.75;0.57;;;24.90;99.90;;;;;;5033920;28;20068;-79
2022/08/09 11:35:59;;;;;;;1.10;0.43;;;24.60;99.90;;;;;;5033641;28;20409;-79
2022/08/09 11:38:28;;;;;;;1.27;0.60;;;24.70;99.90;;;;;;5033812;28;20100;-80
2022/08/09 11:40:55;;;;;;;1.48;0.45;;;24.60;99.90;;;;;;5033681;28;20403;-79
2022/08/09 11:43:26;;;;;;;0.90;0.40;;;24.50;99.90;;;;;;5033755;28;20385;-83
2022/08/09 11:45:54;;;;;;;3.50;0.60;;;24.80;99.90;;;;;;5033634;28;20440;-81
2022/08/09 11:48:29;;;;;;;1.52;0.60;;;24.70;99.90;;;;;;5033475;28;20051;-82
2022/08/09 11:50:57;;;;;;;2.53;0.60;;;24.70;99.90;;;;;;5032573;28;20119;-82
2022/08/09 11:54:09;;;;;;;2.70;0.75;;;24.50;99.90;;;;;;5033349;28;20489;-80
2022/08/09 11:56:35;;;;;;;1.20;0.50;;;25.00;99.90;;;;;;5033128;28;20068;-82
2022/08/09 11:59:00;;;;;;;0.90;0.50;;;24.90;99.90;;;;;;5033542;28;20393;-82
2022/08/09 12:01:41;;;;;;;1.13;0.55;;;24.80;99.90;;;;;;5032113;28;20045;-82
2022/08/09 12:04:13;;;;;;;1.55;0.50;;;24.70;99.90;;;;;;5032521;28;20080;-82
2022/08/09 12:06:48;;;;;;;1.05;0.63;;;24.40;99.90;;;;;;5032290;28;20041;-82
2022/08/09 12:09:14;;;;;;;1.35;0.40;;;24.50;99.90;;;;;;5033752;28;20050;-82
2022/08/09 12:11:40;;;;;;;1.40;0.40;;;24.00;99.90;;;;;;5033267;28;20041;-84
2022/08/09 12:14:09;;;;;;;0.65;0.47;;;24.30;99.90;;;;;;5033431;28;20053;-83
2022/08/09 12:16:40;;;;;;;2.65;0.60;;;24.30;99.90;;;;;;5033354;28;20069;-83
2022/08/09 12:19:08;;;;;;;1.58;0.50;;;24.40;99.90;;;;;;5032586;28;20065;-81
2022/08/09 12:21:38;;;;;;;1.58;0.50;;;24.40;99.90;;;;;;5032136;28;20054;-84
2022/08/09 12:24:06;;;;;;;1.48;0.30;;;24.80;99.90;;;;;;5033112;28;20049;-82
2022/08/09 12:26:46;;;;;;;0.95;0.38;;;24.80;99.90;;;;;;5033140;28;20509;-82
2022/08/09 12:29:20;;;;;;;0.28;0.25;;;24.80;99.90;;;;;;5032875;28;20435;-82
2022/08/09 12:31:48;;;;;;;1.25;0.40;;;24.60;99.90;;;;;;5050833;28;20064;-83
2022/08/09 12:34:41;;;;;;;2.10;0.50;;;24.80;99.90;;;;;;5051901;28;20442;-82
2022/08/09 12:37:07;;;;;;;;;;;25.00;99.90;;;;;;5053570;28;20041;-82
2022/08/09 12:39:32;;;;;;;0.93;0.50;;;24.40;99.90;;;;;;5053440;28;19920;-84
2022/08/09 12:42:10;;;;;;;1.13;0.30;;;24.70;99.90;;;;;;5055664;28;20144;-82
2022/08/09 12:44:40;;;;;;;1.30;0.32;;;24.80;99.90;;;;;;5056759;28;20109;-82
2022/08/09 12:47:07;;;;;;;0.82;0.38;;;25.10;99.90;;;;;;5056764;28;20041;-82
2022/08/09 12:49:33;;;;;;;1.02;0.40;;;24.70;99.90;;;;;;5055496;28;20060;-82
2022/08/09 12:51:59;;;;;;;1.23;0.40;;;25.10;99.90;;;;;;5048342;28;20037;-83
2022/08/09 12:54:25;;;;;;;2.85;0.40;;;24.90;99.90;;;;;;5047502;28;20392;-82
2022/08/09 12:56:51;;;;;;;1.23;0.57;;;25.00;99.90;;;;;;5051309;28;20041;-83
2022/08/09 12:59:22;;;;;;;2.03;0.40;;;25.30;99.90;;;;;;5056522;28;20400;-82